sensor_id;sensor_type;location;lat;lon;timestamp;temperature;humidity
9103;DHT22;4587;51.434;6.788;2023-03-31T00:01:24;11.70;99.90
9103;DHT22;4587;51.434;6.788;2023-03-31T00:03:49;11.70;99.90
9103;DHT22;4587;51.434;6.788;2023-03-31T00:06:15;11.80;99.90
9103;DHT22;4587;51.434;6.788;2023-03-31T00:08:44;11.80;99.90
9103;DHT22;4587;51.434;6.788;2023-03-31T00:11:11;11.70;99.90
9103;DHT22;4587;51.434;6.788;2023-03-31T00:13:37;11.80;99.90
9103;DHT22;4587;51.434;6.788;2023-03-31T00:16:08;11.80;99.90
9103;DHT22;4587;51.434;6.788;2023-03-31T00:18:35;11.80;99.90
9103;DHT22;4587;51.434;6.788;2023-03-31T00:21:14;11.80;99.90
9103;DHT22;4587;51.434;6.788;2023-03-31T00:23:52;11.90;99.90
9103;DHT22;4587;51.434;6.788;2023-03-31T00:26:18;11.80;99.90
9103;DHT22;4587;51.434;6.788;2023-03-31T00:28:43;11.90;99.90
9103;DHT22;4587;51.434;6.788;2023-03-31T00:31:09;12.00;99.90
9103;DHT22;4587;51.434;6.788;2023-03-31T00:33:35;11.90;99.90
9103;DHT22;4587;51.434;6.788;2023-03-31T00:36:01;11.90;99.90
9103;DHT22;4587;51.434;6.788;2023-03-31T00:38:30;12.00;99.90
9103;DHT22;4587;51.434;6.788;2023-03-31T00:40:57;12.00;99.90
9103;DHT22;4587;51.434;6.788;2023-03-31T00:43:37;12.00;99.90
9103;DHT22;4587;51.434;6.788;2023-03-31T00:48:32;12.00;99.90
9103;DHT22;4587;51.434;6.788;2023-03-31T00:51:03;11.90;99.90
9103;DHT22;4587;51.434;6.788;2023-03-31T00:53:30;12.00;99.90
9103;DHT22;4587;51.434;6.788;2023-03-31T00:56:01;11.90;99.90
9103;DHT22;4587;51.434;6.788;2023-03-31T00:58:30;11.90;99.90
9103;DHT22;4587;51.434;6.788;2023-03-31T01:00:59;12.00;99.90
9103;DHT22;4587;51.434;6.788;2023-03-31T01:03:25;12.00;99.90
9103;DHT22;4587;51.434;6.788;2023-03-31T01:05:56;11.90;99.90
9103;DHT22;4587;51.434;6.788;2023-03-31T01:08:25;11.80;99.90
9103;DHT22;4587;51.434;6.788;2023-03-31T01:10:57;11.90;99.90
9103;DHT22;4587;51.434;6.788;2023-03-31T01:13:25;11.90;99.90
9103;DHT22;4587;51.434;6.788;2023-03-31T01:15:51;11.80;99.90
9103;DHT22;4587;51.434;6.788;2023-03-31T01:18:18;11.80;99.90
9103;DHT22;4587;51.434;6.788;2023-03-31T01:35:22;11.50;99.90
9103;DHT22;4587;51.434;6.788;2023-03-31T01:38:29;11.50;99.90
9103;DHT22;4587;51.434;6.788;2023-03-31T01:44:16;11.50;99.90
9103;DHT22;4587;51.434;6.788;2023-03-31T01:47:11;11.50;99.90
9103;DHT22;4587;51.434;6.788;2023-03-31T01:57:37;11.40;99.90
9103;DHT22;4587;51.434;6.788;2023-03-31T02:00:14;11.50;99.90
9103;DHT22;4587;51.434;6.788;2023-03-31T02:02:44;11.50;99.90
9103;DHT22;4587;51.434;6.788;2023-03-31T02:05:19;11.60;99.90
9103;DHT22;4587;51.434;6.788;2023-03-31T02:07:53;11.60;99.90
9103;DHT22;4587;51.434;6.788;2023-03-31T02:10:21;11.60;99.90
9103;DHT22;4587;51.434;6.788;2023-03-31T02:12:49;11.70;99.90
9103;DHT22;4587;51.434;6.788;2023-03-31T02:15:21;11.60;99.90
9103;DHT22;4587;51.434;6.788;2023-03-31T02:17:50;11.60;99.90
9103;DHT22;4587;51.434;6.788;2023-03-31T02:20:21;11.60;99.90
9103;DHT22;4587;51.434;6.788;2023-03-31T02:22:49;11.70;99.90
9103;DHT22;4587;51.434;6.788;2023-03-31T02:25:21;11.60;99.90
9103;DHT22;4587;51.434;6.788;2023-03-31T02:27:52;11.60;99.90
9103;DHT22;4587;51.434;6.788;2023-03-31T02:30:19;11.60;99.90
9103;DHT22;4587;51.434;6.788;2023-03-31T02:32:45;11.60;99.90
9103;DHT22;4587;51.434;6.788;2023-03-31T02:35:16;11.60;99.90
9103;DHT22;4587;51.434;6.788;2023-03-31T02:37:42;11.70;99.90
9103;DHT22;4587;51.434;6.788;2023-03-31T02:40:13;11.70;99.90
9103;DHT22;4587;51.434;6.788;2023-03-31T02:42:41;11.80;99.90
9103;DHT22;4587;51.434;6.788;2023-03-31T02:45:38;11.90;99.90
9103;DHT22;4587;51.434;6.788;2023-03-31T02:48:09;11.70;99.90
9103;DHT22;4587;51.434;6.788;2023-03-31T02:53:33;11.90;99.90
9103;DHT22;4587;51.434;6.788;2023-03-31T02:59:00;11.80;99.90
9103;DHT22;4587;51.434;6.788;2023-03-31T03:09:48;11.80;99.90
9103;DHT22;4587;51.434;6.788;2023-03-31T03:12:31;11.80;99.90
9103;DHT22;4587;51.434;6.788;2023-03-31T03:15:09;11.80;99.90
9103;DHT22;4587;51.434;6.788;2023-03-31T03:17:45;11.80;99.90
9103;DHT22;4587;51.434;6.788;2023-03-31T03:20:13;11.80;99.90
9103;DHT22;4587;51.434;6.788;2023-03-31T03:22:39;11.70;99.90
9103;DHT22;4587;51.434;6.788;2023-03-31T03:25:10;11.70;99.90
9103;DHT22;4587;51.434;6.788;2023-03-31T03:27:36;11.60;99.90
9103;DHT22;4587;51.434;6.788;2023-03-31T03:30:03;11.60;99.90
9103;DHT22;4587;51.434;6.788;2023-03-31T03:32:30;11.50;99.90
9103;DHT22;4587;51.434;6.788;2023-03-31T03:34:55;11.60;99.90
9103;DHT22;4587;51.434;6.788;2023-03-31T03:37:21;11.60;99.90
9103;DHT22;4587;51.434;6.788;2023-03-31T03:39:47;11.60;99.90
9103;DHT22;4587;51.434;6.788;2023-03-31T03:42:12;11.60;99.90
9103;DHT22;4587;51.434;6.788;2023-03-31T03:44:38;11.60;99.90
9103;DHT22;4587;51.434;6.788;2023-03-31T03:47:04;11.70;99.90
9103;DHT22;4587;51.434;6.788;2023-03-31T03:49:29;11.60;99.90
9103;DHT22;4587;51.434;6.788;2023-03-31T03:51:55;11.60;99.90
9103;DHT22;4587;51.434;6.788;2023-03-31T03:54:20;11.50;99.90
9103;DHT22;4587;51.434;6.788;2023-03-31T03:56:46;11.60;99.90
9103;DHT22;4587;51.434;6.788;2023-03-31T03:59:12;11.60;99.90
9103;DHT22;4587;51.434;6.788;2023-03-31T04:01:37;11.60;99.90
9103;DHT22;4587;51.434;6.788;2023-03-31T04:04:03;11.60;99.90
9103;DHT22;4587;51.434;6.788;2023-03-31T04:06:29;11.70;99.90
9103;DHT22;4587;51.434;6.788;2023-03-31T04:08:54;11.70;99.90
9103;DHT22;4587;51.434;6.788;2023-03-31T04:11:20;11.70;99.90
9103;DHT22;4587;51.434;6.788;2023-03-31T04:13:46;11.60;99.90
9103;DHT22;4587;51.434;6.788;2023-03-31T04:16:12;11.60;99.90
9103;DHT22;4587;51.434;6.788;2023-03-31T04:18:38;11.50;99.90
9103;DHT22;4587;51.434;6.788;2023-03-31T04:21:08;11.50;99.90
9103;DHT22;4587;51.434;6.788;2023-03-31T04:23:38;11.50;99.90
9103;DHT22;4587;51.434;6.788;2023-03-31T04:26:10;11.60;99.90
9103;DHT22;4587;51.434;6.788;2023-03-31T04:28:37;11.60;99.90
9103;DHT22;4587;51.434;6.788;2023-03-31T04:31:03;11.60;99.90
9103;DHT22;4587;51.434;6.788;2023-03-31T04:33:31;11.60;99.90
9103;DHT22;4587;51.434;6.788;2023-03-31T04:36:04;11.60;99.90
9103;DHT22;4587;51.434;6.788;2023-03-31T04:38:32;11.60;99.90
9103;DHT22;4587;51.434;6.788;2023-03-31T04:41:00;11.60;99.90
9103;DHT22;4587;51.434;6.788;2023-03-31T04:43:25;11.60;99.90
9103;DHT22;4587;51.434;6.788;2023-03-31T04:45:51;11.70;99.90
9103;DHT22;4587;51.434;6.788;2023-03-31T04:48:16;11.60;99.90
9103;DHT22;4587;51.434;6.788;2023-03-31T04:50:42;11.60;99.90
9103;DHT22;4587;51.434;6.788;2023-03-31T04:53:08;11.50;99.90
9103;DHT22;4587;51.434;6.788;2023-03-31T04:55:33;11.60;99.90
9103;DHT22;4587;51.434;6.788;2023-03-31T04:57:59;11.60;99.90
9103;DHT22;4587;51.434;6.788;2023-03-31T05:00:25;11.70;99.90
9103;DHT22;4587;51.434;6.788;2023-03-31T05:02:51;11.50;99.90
9103;DHT22;4587;51.434;6.788;2023-03-31T05:05:17;11.50;99.90
9103;DHT22;4587;51.434;6.788;2023-03-31T05:07:43;11.50;99.90
9103;DHT22;4587;51.434;6.788;2023-03-31T05:10:09;11.50;99.90
9103;DHT22;4587;51.434;6.788;2023-03-31T05:12:35;11.40;99.90
9103;DHT22;4587;51.434;6.788;2023-03-31T05:15:02;11.50;99.90
9103;DHT22;4587;51.434;6.788;2023-03-31T05:17:31;11.40;99.90
9103;DHT22;4587;51.434;6.788;2023-03-31T05:19:57;11.30;99.90
9103;DHT22;4587;51.434;6.788;2023-03-31T05:22:23;11.20;99.90
9103;DHT22;4587;51.434;6.788;2023-03-31T05:24:48;11.20;99.90
9103;DHT22;4587;51.434;6.788;2023-03-31T05:27:15;11.20;99.90
9103;DHT22;4587;51.434;6.788;2023-03-31T05:29:40;11.20;99.90
9103;DHT22;4587;51.434;6.788;2023-03-31T05:32:06;11.20;99.90
9103;DHT22;4587;51.434;6.788;2023-03-31T05:34:31;11.20;99.90
9103;DHT22;4587;51.434;6.788;2023-03-31T05:36:57;11.30;99.90
9103;DHT22;4587;51.434;6.788;2023-03-31T05:39:23;11.30;99.90
9103;DHT22;4587;51.434;6.788;2023-03-31T05:41:48;11.30;99.90
9103;DHT22;4587;51.434;6.788;2023-03-31T05:44:14;11.30;99.90
9103;DHT22;4587;51.434;6.788;2023-03-31T05:46:40;11.30;99.90
9103;DHT22;4587;51.434;6.788;2023-03-31T05:49:06;11.30;99.90
9103;DHT22;4587;51.434;6.788;2023-03-31T05:51:33;11.40;99.90
9103;DHT22;4587;51.434;6.788;2023-03-31T05:53:58;11.40;99.90
9103;DHT22;4587;51.434;6.788;2023-03-31T05:56:24;11.40;99.90
9103;DHT22;4587;51.434;6.788;2023-03-31T05:58:52;11.40;99.90
9103;DHT22;4587;51.434;6.788;2023-03-31T06:01:18;11.30;99.90
9103;DHT22;4587;51.434;6.788;2023-03-31T06:03:45;11.40;99.90
9103;DHT22;4587;51.434;6.788;2023-03-31T06:06:11;11.50;99.90
9103;DHT22;4587;51.434;6.788;2023-03-31T06:08:37;11.60;99.90
9103;DHT22;4587;51.434;6.788;2023-03-31T06:11:05;11.50;99.90
9103;DHT22;4587;51.434;6.788;2023-03-31T06:13:30;11.60;99.90
9103;DHT22;4587;51.434;6.788;2023-03-31T06:15:58;11.70;99.90
9103;DHT22;4587;51.434;6.788;2023-03-31T06:18:26;11.70;99.90
9103;DHT22;4587;51.434;6.788;2023-03-31T06:20:53;11.70;99.90
9103;DHT22;4587;51.434;6.788;2023-03-31T06:23:19;11.70;99.90
9103;DHT22;4587;51.434;6.788;2023-03-31T06:25:45;11.70;99.90
9103;DHT22;4587;51.434;6.788;2023-03-31T06:28:11;11.60;99.90
9103;DHT22;4587;51.434;6.788;2023-03-31T06:30:36;11.60;99.90
9103;DHT22;4587;51.434;6.788;2023-03-31T06:33:02;11.60;99.90
9103;DHT22;4587;51.434;6.788;2023-03-31T06:35:27;11.50;99.90
9103;DHT22;4587;51.434;6.788;2023-03-31T06:37:53;11.50;99.90
9103;DHT22;4587;51.434;6.788;2023-03-31T06:40:19;11.50;99.90
9103;DHT22;4587;51.434;6.788;2023-03-31T06:42:44;11.40;99.90
9103;DHT22;4587;51.434;6.788;2023-03-31T06:45:10;11.40;99.90
9103;DHT22;4587;51.434;6.788;2023-03-31T06:47:35;11.40;99.90
9103;DHT22;4587;51.434;6.788;2023-03-31T06:50:04;11.40;99.90
9103;DHT22;4587;51.434;6.788;2023-03-31T06:52:30;11.30;99.90
9103;DHT22;4587;51.434;6.788;2023-03-31T06:54:56;11.40;99.90
9103;DHT22;4587;51.434;6.788;2023-03-31T06:57:21;11.50;99.90
9103;DHT22;4587;51.434;6.788;2023-03-31T06:59:47;11.40;99.90
9103;DHT22;4587;51.434;6.788;2023-03-31T07:02:13;11.50;99.90
9103;DHT22;4587;51.434;6.788;2023-03-31T07:04:38;11.40;99.90
9103;DHT22;4587;51.434;6.788;2023-03-31T07:07:04;11.40;99.90
9103;DHT22;4587;51.434;6.788;2023-03-31T07:09:29;11.40;99.90
9103;DHT22;4587;51.434;6.788;2023-03-31T07:11:55;11.40;99.90
9103;DHT22;4587;51.434;6.788;2023-03-31T07:14:20;11.40;99.90
9103;DHT22;4587;51.434;6.788;2023-03-31T07:16:47;11.50;99.90
9103;DHT22;4587;51.434;6.788;2023-03-31T07:19:12;11.50;99.90
9103;DHT22;4587;51.434;6.788;2023-03-31T07:21:39;11.50;99.90
9103;DHT22;4587;51.434;6.788;2023-03-31T07:24:05;11.50;99.90
9103;DHT22;4587;51.434;6.788;2023-03-31T07:26:31;11.50;99.90
9103;DHT22;4587;51.434;6.788;2023-03-31T07:28:56;11.60;99.90
9103;DHT22;4587;51.434;6.788;2023-03-31T07:31:22;11.60;99.90
9103;DHT22;4587;51.434;6.788;2023-03-31T07:33:48;11.50;99.90
9103;DHT22;4587;51.434;6.788;2023-03-31T07:36:14;11.60;99.90
9103;DHT22;4587;51.434;6.788;2023-03-31T07:38:42;11.50;99.90
9103;DHT22;4587;51.434;6.788;2023-03-31T07:41:13;11.50;99.90
9103;DHT22;4587;51.434;6.788;2023-03-31T07:43:40;11.50;99.90
9103;DHT22;4587;51.434;6.788;2023-03-31T07:46:06;11.60;99.90
9103;DHT22;4587;51.434;6.788;2023-03-31T07:48:37;11.60;99.90
9103;DHT22;4587;51.434;6.788;2023-03-31T07:51:03;11.60;99.90
9103;DHT22;4587;51.434;6.788;2023-03-31T07:53:29;11.60;99.90
9103;DHT22;4587;51.434;6.788;2023-03-31T07:55:55;11.50;99.90
9103;DHT22;4587;51.434;6.788;2023-03-31T07:58:20;11.40;99.90
9103;DHT22;4587;51.434;6.788;2023-03-31T08:00:46;11.40;99.90
9103;DHT22;4587;51.434;6.788;2023-03-31T08:03:11;11.40;99.90
9103;DHT22;4587;51.434;6.788;2023-03-31T08:05:37;11.50;99.90
9103;DHT22;4587;51.434;6.788;2023-03-31T08:08:03;11.40;99.90
9103;DHT22;4587;51.434;6.788;2023-03-31T08:10:28;11.40;99.90
9103;DHT22;4587;51.434;6.788;2023-03-31T08:12:54;11.40;99.90
9103;DHT22;4587;51.434;6.788;2023-03-31T08:15:20;11.40;99.90
9103;DHT22;4587;51.434;6.788;2023-03-31T08:17:46;11.50;99.90
9103;DHT22;4587;51.434;6.788;2023-03-31T08:20:11;11.40;99.90
9103;DHT22;4587;51.434;6.788;2023-03-31T08:22:38;11.50;99.90
9103;DHT22;4587;51.434;6.788;2023-03-31T08:25:04;11.60;99.90
9103;DHT22;4587;51.434;6.788;2023-03-31T08:27:33;11.60;99.90
9103;DHT22;4587;51.434;6.788;2023-03-31T08:29:58;11.60;99.90
9103;DHT22;4587;51.434;6.788;2023-03-31T08:32:27;11.70;99.90
9103;DHT22;4587;51.434;6.788;2023-03-31T08:34:53;11.80;99.90
9103;DHT22;4587;51.434;6.788;2023-03-31T08:37:18;12.00;99.90
9103;DHT22;4587;51.434;6.788;2023-03-31T08:39:44;12.10;99.90
9103;DHT22;4587;51.434;6.788;2023-03-31T08:47:36;12.60;99.90
9103;DHT22;4587;51.434;6.788;2023-03-31T08:50:12;12.60;99.90
9103;DHT22;4587;51.434;6.788;2023-03-31T08:52:43;12.70;99.90
9103;DHT22;4587;51.434;6.788;2023-03-31T08:55:15;12.70;99.90
9103;DHT22;4587;51.434;6.788;2023-03-31T08:57:59;12.80;99.90
9103;DHT22;4587;51.434;6.788;2023-03-31T09:00:37;13.00;99.90
9103;DHT22;4587;51.434;6.788;2023-03-31T09:03:33;13.00;99.90
9103;DHT22;4587;51.434;6.788;2023-03-31T09:06:08;13.10;99.90
9103;DHT22;4587;51.434;6.788;2023-03-31T09:08:38;13.10;99.90
9103;DHT22;4587;51.434;6.788;2023-03-31T09:11:19;13.10;99.90
9103;DHT22;4587;51.434;6.788;2023-03-31T09:13:55;13.10;99.90
9103;DHT22;4587;51.434;6.788;2023-03-31T09:16:37;13.10;99.90
9103;DHT22;4587;51.434;6.788;2023-03-31T09:19:13;13.10;99.90
9103;DHT22;4587;51.434;6.788;2023-03-31T09:21:44;13.00;99.90
9103;DHT22;4587;51.434;6.788;2023-03-31T09:24:49;13.00;99.90
9103;DHT22;4587;51.434;6.788;2023-03-31T09:27:11;13.10;99.90
9103;DHT22;4587;51.434;6.788;2023-03-31T09:29:54;13.00;99.90
9103;DHT22;4587;51.434;6.788;2023-03-31T09:32:22;13.10;99.90
9103;DHT22;4587;51.434;6.788;2023-03-31T09:34:55;13.10;99.90
9103;DHT22;4587;51.434;6.788;2023-03-31T09:37:23;13.10;99.90
9103;DHT22;4587;51.434;6.788;2023-03-31T09:39:49;13.20;99.90
9103;DHT22;4587;51.434;6.788;2023-03-31T09:42:14;13.20;99.90
9103;DHT22;4587;51.434;6.788;2023-03-31T09:44:43;13.30;99.90
9103;DHT22;4587;51.434;6.788;2023-03-31T09:47:28;13.30;99.90
9103;DHT22;4587;51.434;6.788;2023-03-31T09:49:55;13.40;99.90
9103;DHT22;4587;51.434;6.788;2023-03-31T09:52:31;13.50;99.90
9103;DHT22;4587;51.434;6.788;2023-03-31T09:55:00;13.70;99.90
9103;DHT22;4587;51.434;6.788;2023-03-31T09:57:37;13.90;99.90
9103;DHT22;4587;51.434;6.788;2023-03-31T10:00:15;14.20;99.90
9103;DHT22;4587;51.434;6.788;2023-03-31T10:02:49;14.50;99.90
9103;DHT22;4587;51.434;6.788;2023-03-31T10:05:28;14.80;99.90
9103;DHT22;4587;51.434;6.788;2023-03-31T10:13:28;14.80;99.90
9103;DHT22;4587;51.434;6.788;2023-03-31T10:16:02;14.60;99.90
9103;DHT22;4587;51.434;6.788;2023-03-31T10:18:38;14.30;99.90
9103;DHT22;4587;51.434;6.788;2023-03-31T10:21:24;14.10;99.90
9103;DHT22;4587;51.434;6.788;2023-03-31T10:23:50;14.00;99.90
9103;DHT22;4587;51.434;6.788;2023-03-31T10:26:25;13.90;99.90
9103;DHT22;4587;51.434;6.788;2023-03-31T10:28:51;13.90;99.90
9103;DHT22;4587;51.434;6.788;2023-03-31T10:31:23;13.90;99.90
9103;DHT22;4587;51.434;6.788;2023-03-31T10:33:50;13.90;99.90
9103;DHT22;4587;51.434;6.788;2023-03-31T10:36:24;14.10;99.90
9103;DHT22;4587;51.434;6.788;2023-03-31T10:38:51;14.20;99.90
9103;DHT22;4587;51.434;6.788;2023-03-31T10:41:22;14.40;99.90
9103;DHT22;4587;51.434;6.788;2023-03-31T10:43:54;14.50;99.90
9103;DHT22;4587;51.434;6.788;2023-03-31T10:46:20;14.70;99.90
9103;DHT22;4587;51.434;6.788;2023-03-31T10:49:13;14.80;99.90
9103;DHT22;4587;51.434;6.788;2023-03-31T10:51:48;15.10;99.90
9103;DHT22;4587;51.434;6.788;2023-03-31T10:54:14;15.10;99.90
9103;DHT22;4587;51.434;6.788;2023-03-31T10:56:43;15.10;99.90
9103;DHT22;4587;51.434;6.788;2023-03-31T10:59:22;15.00;99.90
9103;DHT22;4587;51.434;6.788;2023-03-31T11:02:19;14.80;99.90
9103;DHT22;4587;51.434;6.788;2023-03-31T11:15:09;14.40;99.90
9103;DHT22;4587;51.434;6.788;2023-03-31T11:25:55;14.50;99.90
9103;DHT22;4587;51.434;6.788;2023-03-31T11:28:33;14.60;99.90
9103;DHT22;4587;51.434;6.788;2023-03-31T11:31:15;14.70;99.90
9103;DHT22;4587;51.434;6.788;2023-03-31T11:37:36;14.90;99.90
9103;DHT22;4587;51.434;6.788;2023-03-31T11:44:53;15.00;99.90
9103;DHT22;4587;51.434;6.788;2023-03-31T11:47:32;15.00;99.90
9103;DHT22;4587;51.434;6.788;2023-03-31T11:50:03;15.00;99.90
9103;DHT22;4587;51.434;6.788;2023-03-31T11:52:38;14.90;99.90
9103;DHT22;4587;51.434;6.788;2023-03-31T11:55:19;15.00;99.90
9103;DHT22;4587;51.434;6.788;2023-03-31T11:58:11;15.00;99.90
9103;DHT22;4587;51.434;6.788;2023-03-31T12:01:06;15.00;99.90
9103;DHT22;4587;51.434;6.788;2023-03-31T12:03:53;15.00;99.90
9103;DHT22;4587;51.434;6.788;2023-03-31T12:06:24;15.20;99.90
9103;DHT22;4587;51.434;6.788;2023-03-31T12:09:32;15.30;99.90
9103;DHT22;4587;51.434;6.788;2023-03-31T12:15:07;15.30;99.90
9103;DHT22;4587;51.434;6.788;2023-03-31T12:17:37;15.20;99.90
9103;DHT22;4587;51.434;6.788;2023-03-31T12:20:13;15.00;99.90
9103;DHT22;4587;51.434;6.788;2023-03-31T12:22:43;15.00;99.90
9103;DHT22;4587;51.434;6.788;2023-03-31T12:25:13;14.90;99.90
9103;DHT22;4587;51.434;6.788;2023-03-31T12:27:43;14.90;99.90
9103;DHT22;4587;51.434;6.788;2023-03-31T12:30:28;14.80;99.90
9103;DHT22;4587;51.434;6.788;2023-03-31T12:33:00;14.80;99.90
9103;DHT22;4587;51.434;6.788;2023-03-31T12:38:26;15.00;99.90
9103;DHT22;4587;51.434;6.788;2023-03-31T12:57:23;15.80;99.90
9103;DHT22;4587;51.434;6.788;2023-03-31T13:02:41;15.90;99.90
9103;DHT22;4587;51.434;6.788;2023-03-31T13:08:05;16.00;99.90
9103;DHT22;4587;51.434;6.788;2023-03-31T13:10:32;16.00;99.90
9103;DHT22;4587;51.434;6.788;2023-03-31T13:13:15;16.00;99.90
9103;DHT22;4587;51.434;6.788;2023-03-31T13:15:53;15.90;99.90
9103;DHT22;4587;51.434;6.788;2023-03-31T13:18:20;15.80;99.90
9103;DHT22;4587;51.434;6.788;2023-03-31T13:20:57;15.70;99.90
9103;DHT22;4587;51.434;6.788;2023-03-31T13:23:24;15.70;99.90
9103;DHT22;4587;51.434;6.788;2023-03-31T13:25:56;15.80;99.90
9103;DHT22;4587;51.434;6.788;2023-03-31T13:35:49;15.90;99.90
9103;DHT22;4587;51.434;6.788;2023-03-31T13:47:16;15.90;99.90
9103;DHT22;4587;51.434;6.788;2023-03-31T13:52:57;16.00;99.90
9103;DHT22;4587;51.434;6.788;2023-03-31T14:01:30;15.90;99.90
9103;DHT22;4587;51.434;6.788;2023-03-31T14:04:39;16.00;99.90
9103;DHT22;4587;51.434;6.788;2023-03-31T14:07:11;16.00;99.90
9103;DHT22;4587;51.434;6.788;2023-03-31T14:09:41;16.00;99.90
9103;DHT22;4587;51.434;6.788;2023-03-31T14:12:34;16.00;99.90
9103;DHT22;4587;51.434;6.788;2023-03-31T14:15:01;16.10;99.90
9103;DHT22;4587;51.434;6.788;2023-03-31T14:17:30;16.10;99.90
9103;DHT22;4587;51.434;6.788;2023-03-31T14:25:49;16.20;99.90
9103;DHT22;4587;51.434;6.788;2023-03-31T14:31:15;16.10;99.90
9103;DHT22;4587;51.434;6.788;2023-03-31T14:36:58;15.80;99.90
9103;DHT22;4587;51.434;6.788;2023-03-31T14:39:42;15.70;99.90
9103;DHT22;4587;51.434;6.788;2023-03-31T14:42:20;15.60;99.90
9103;DHT22;4587;51.434;6.788;2023-03-31T14:44:47;15.50;99.90
9103;DHT22;4587;51.434;6.788;2023-03-31T14:47:25;15.40;99.90
9103;DHT22;4587;51.434;6.788;2023-03-31T14:50:13;15.20;99.90
9103;DHT22;4587;51.434;6.788;2023-03-31T14:52:39;15.10;99.90
9103;DHT22;4587;51.434;6.788;2023-03-31T14:55:14;15.00;99.90
9103;DHT22;4587;51.434;6.788;2023-03-31T14:57:40;14.90;99.90
9103;DHT22;4587;51.434;6.788;2023-03-31T15:00:07;15.00;99.90
9103;DHT22;4587;51.434;6.788;2023-03-31T15:02:36;15.00;99.90
9103;DHT22;4587;51.434;6.788;2023-03-31T15:05:04;15.10;99.90
9103;DHT22;4587;51.434;6.788;2023-03-31T15:07:32;15.00;99.90
9103;DHT22;4587;51.434;6.788;2023-03-31T15:09:57;14.90;99.90
9103;DHT22;4587;51.434;6.788;2023-03-31T15:12:23;14.90;99.90
9103;DHT22;4587;51.434;6.788;2023-03-31T15:15:16;14.80;99.90
9103;DHT22;4587;51.434;6.788;2023-03-31T15:17:42;14.70;99.90
9103;DHT22;4587;51.434;6.788;2023-03-31T15:20:29;14.70;99.90
9103;DHT22;4587;51.434;6.788;2023-03-31T15:22:56;14.60;99.90
9103;DHT22;4587;51.434;6.788;2023-03-31T15:25:32;14.50;99.90
9103;DHT22;4587;51.434;6.788;2023-03-31T15:28:08;14.50;99.90
9103;DHT22;4587;51.434;6.788;2023-03-31T15:30:36;14.60;99.90
9103;DHT22;4587;51.434;6.788;2023-03-31T15:33:05;14.50;99.90
9103;DHT22;4587;51.434;6.788;2023-03-31T15:35:33;14.50;99.90
9103;DHT22;4587;51.434;6.788;2023-03-31T15:38:02;14.40;99.90
9103;DHT22;4587;51.434;6.788;2023-03-31T15:40:34;14.40;99.90
9103;DHT22;4587;51.434;6.788;2023-03-31T15:43:16;14.40;99.90
9103;DHT22;4587;51.434;6.788;2023-03-31T15:48:31;14.40;99.90
9103;DHT22;4587;51.434;6.788;2023-03-31T15:51:24;14.40;99.90
9103;DHT22;4587;51.434;6.788;2023-03-31T15:53:53;14.40;99.90
9103;DHT22;4587;51.434;6.788;2023-03-31T15:56:36;14.30;99.90
9103;DHT22;4587;51.434;6.788;2023-03-31T15:59:05;14.30;99.90
9103;DHT22;4587;51.434;6.788;2023-03-31T16:01:34;14.30;99.90
9103;DHT22;4587;51.434;6.788;2023-03-31T16:04:06;14.20;99.90
9103;DHT22;4587;51.434;6.788;2023-03-31T16:06:44;14.20;99.90
9103;DHT22;4587;51.434;6.788;2023-03-31T16:09:20;14.30;99.90
9103;DHT22;4587;51.434;6.788;2023-03-31T16:11:58;14.30;99.90
9103;DHT22;4587;51.434;6.788;2023-03-31T16:14:36;14.30;99.90
9103;DHT22;4587;51.434;6.788;2023-03-31T16:17:12;14.40;99.90
9103;DHT22;4587;51.434;6.788;2023-03-31T16:19:47;14.30;99.90
9103;DHT22;4587;51.434;6.788;2023-03-31T16:22:21;14.20;99.90
9103;DHT22;4587;51.434;6.788;2023-03-31T16:24:48;14.10;99.90
9103;DHT22;4587;51.434;6.788;2023-03-31T16:27:15;14.00;99.90
9103;DHT22;4587;51.434;6.788;2023-03-31T16:29:40;14.00;99.90
9103;DHT22;4587;51.434;6.788;2023-03-31T16:32:12;14.00;99.90
9103;DHT22;4587;51.434;6.788;2023-03-31T16:34:59;13.90;99.90
9103;DHT22;4587;51.434;6.788;2023-03-31T16:37:25;13.90;99.90
9103;DHT22;4587;51.434;6.788;2023-03-31T16:39:51;13.80;99.90
9103;DHT22;4587;51.434;6.788;2023-03-31T16:42:17;13.80;99.90
9103;DHT22;4587;51.434;6.788;2023-03-31T16:44:43;13.70;99.90
9103;DHT22;4587;51.434;6.788;2023-03-31T16:47:11;13.70;99.90
9103;DHT22;4587;51.434;6.788;2023-03-31T16:49:36;13.60;99.90
9103;DHT22;4587;51.434;6.788;2023-03-31T16:52:02;13.60;99.90
9103;DHT22;4587;51.434;6.788;2023-03-31T16:54:29;13.50;99.90
9103;DHT22;4587;51.434;6.788;2023-03-31T16:56:55;13.40;99.90
9103;DHT22;4587;51.434;6.788;2023-03-31T16:59:22;13.40;99.90
9103;DHT22;4587;51.434;6.788;2023-03-31T17:01:47;13.30;99.90
9103;DHT22;4587;51.434;6.788;2023-03-31T17:04:13;13.30;99.90
9103;DHT22;4587;51.434;6.788;2023-03-31T17:06:39;13.20;99.90
9103;DHT22;4587;51.434;6.788;2023-03-31T17:09:04;13.20;99.90
9103;DHT22;4587;51.434;6.788;2023-03-31T17:11:30;13.20;99.90
9103;DHT22;4587;51.434;6.788;2023-03-31T17:13:55;13.10;99.90
9103;DHT22;4587;51.434;6.788;2023-03-31T17:16:21;13.10;99.90
9103;DHT22;4587;51.434;6.788;2023-03-31T17:18:47;13.10;99.90
9103;DHT22;4587;51.434;6.788;2023-03-31T17:21:14;13.00;99.90
9103;DHT22;4587;51.434;6.788;2023-03-31T17:23:42;12.90;99.90
9103;DHT22;4587;51.434;6.788;2023-03-31T17:26:08;12.90;99.90
9103;DHT22;4587;51.434;6.788;2023-03-31T17:28:35;12.90;99.90
9103;DHT22;4587;51.434;6.788;2023-03-31T17:31:01;12.80;99.90
9103;DHT22;4587;51.434;6.788;2023-03-31T17:33:26;12.80;99.90
9103;DHT22;4587;51.434;6.788;2023-03-31T17:35:58;12.70;99.90
9103;DHT22;4587;51.434;6.788;2023-03-31T17:38:27;12.70;99.90
9103;DHT22;4587;51.434;6.788;2023-03-31T17:40:53;12.60;99.90
9103;DHT22;4587;51.434;6.788;2023-03-31T17:43:19;12.60;99.90
9103;DHT22;4587;51.434;6.788;2023-03-31T17:45:44;12.50;99.90
9103;DHT22;4587;51.434;6.788;2023-03-31T17:48:10;12.50;99.90
9103;DHT22;4587;51.434;6.788;2023-03-31T17:50:36;12.50;99.90
9103;DHT22;4587;51.434;6.788;2023-03-31T17:53:02;12.50;99.90
9103;DHT22;4587;51.434;6.788;2023-03-31T17:55:36;12.50;99.90
9103;DHT22;4587;51.434;6.788;2023-03-31T17:58:03;12.40;99.90
9103;DHT22;4587;51.434;6.788;2023-03-31T18:00:28;12.40;99.90
9103;DHT22;4587;51.434;6.788;2023-03-31T18:02:54;12.40;99.90
9103;DHT22;4587;51.434;6.788;2023-03-31T18:05:19;12.40;99.90
9103;DHT22;4587;51.434;6.788;2023-03-31T18:07:46;12.40;99.90
9103;DHT22;4587;51.434;6.788;2023-03-31T18:10:11;12.30;99.90
9103;DHT22;4587;51.434;6.788;2023-03-31T18:12:37;12.20;99.90
9103;DHT22;4587;51.434;6.788;2023-03-31T18:15:04;12.30;99.90
9103;DHT22;4587;51.434;6.788;2023-03-31T18:17:31;12.30;99.90
9103;DHT22;4587;51.434;6.788;2023-03-31T18:19:57;12.30;99.90
9103;DHT22;4587;51.434;6.788;2023-03-31T18:22:23;12.30;99.90
9103;DHT22;4587;51.434;6.788;2023-03-31T18:24:49;12.20;99.90
9103;DHT22;4587;51.434;6.788;2023-03-31T18:27:14;12.20;99.90
9103;DHT22;4587;51.434;6.788;2023-03-31T18:29:40;12.20;99.90
9103;DHT22;4587;51.434;6.788;2023-03-31T18:32:06;12.20;99.90
9103;DHT22;4587;51.434;6.788;2023-03-31T18:34:31;12.30;99.90
9103;DHT22;4587;51.434;6.788;2023-03-31T18:36:58;12.20;99.90
9103;DHT22;4587;51.434;6.788;2023-03-31T18:39:23;12.20;99.90
9103;DHT22;4587;51.434;6.788;2023-03-31T18:41:49;12.10;99.90
9103;DHT22;4587;51.434;6.788;2023-03-31T18:44:16;12.20;99.90
9103;DHT22;4587;51.434;6.788;2023-03-31T18:46:42;12.20;99.90
9103;DHT22;4587;51.434;6.788;2023-03-31T18:49:08;12.20;99.90